Nearby METAR Reports

 

KOXC - Oxford/Waterbury, Connecticut, USA
Distance from station: NW 7mi, 11km
Updated: 06/26/2017 10:50am
Partly cloudy
Partly cloudy
 Wind from NW
Wind: NW 7 mph , 11 km/h
Temperature: 70°F , 21°C
Dew Point: 50°F , 10°C
Humidity: 50%
Barometer: 30.04 inHg , 1017.3 hPa
Clouds: Partly cloudy
Visibility: 10 miles , 16 km
Cloud details: Partly cloudy 4000 ft
2017/06/26 14:50 KOXC 261450Z 32006KT 10SM SCT040 21/10 A3004
KHVN - New Haven/Tweed, Connecticut, USA
Distance from station: SE 13mi, 20km
Updated: 06/26/2017 10:53am
Few Clouds
Few Clouds
 Wind from SSW
Wind: SSW 8 mph , 13 km/h
Temperature: 70°F , 21°C
Dew Point: 57°F , 14°C
Humidity: 64%
Barometer: 30.02 inHg , 1016.6 hPa
Clouds: Few Clouds
Visibility: 10 miles , 16 km
Cloud details: Few Clouds 3000 ft
2017/06/26 14:53 KHVN 261453Z 21007KT 10SM FEW030 21/14 A3002
 
KMMK - Meriden, Connecticut, USA
Distance from station: NE 13mi, 21km
Updated: 06/26/2017 10:53am
Clear
Clear
 Wind from varies
Wind: varies 6 mph , 9 km/h
Temperature: 73°F , 23°C
Dew Point: 52°F , 11°C
Humidity: 47%
Barometer: 30.01 inHg , 1016.3 hPa
Clouds: Clear
Visibility: 10 miles , 16 km
2017/06/26 14:53 KMMK 261453Z AUTO VRB05KT 10SM CLR 23/11 A3001 RMK AO2 SLP162 T02280106 58002 TSNO
KBDR - Bridgeport, Connecticut, USA
Distance from station: SSW 17mi, 27km
Updated: 06/26/2017 10:52am
Clear
Clear
 Wind from SW
Wind: SW 13 mph , 20 km/h
Temperature: 73°F , 23°C
Dew Point: 57°F , 14°C
Humidity: 57%
Barometer: 30.02 inHg , 1016.6 hPa
Clouds: Clear
Visibility: 10 miles , 16 km
2017/06/26 14:52 KBDR 261452Z 22011KT 10SM CLR 23/14 A3002
 
KDXR - Danbury, Connecticut, USA
Distance from station: W 23mi, 38km
Updated: 06/26/2017 10:53am
Few Clouds
Few Clouds
 Wind from W
Wind: W 10 mph , 17 km/h
Temperature: 72°F , 22°C
Dew Point: 50°F , 10°C
Humidity: 47%
Barometer: 30.04 inHg , 1017.3 hPa
Clouds: Few Clouds
Visibility: 10 miles , 16 km
Cloud details: Few Clouds 5000 ft
2017/06/26 14:53 KDXR 261453Z 28009KT 10SM FEW050 22/10 A3004